createdAt,value
2018-04-21T00:00:43.571Z,41.98
2018-04-21T00:03:15.058Z,41.90
2018-04-21T00:05:46.377Z,42.03
2018-04-21T00:08:18.582Z,42.46
2018-04-21T00:10:50.621Z,42.17
2018-04-21T00:15:59.440Z,41.99
2018-04-21T00:18:31.200Z,42.02
2018-04-21T00:21:02.507Z,42.30
2018-04-21T00:23:35.133Z,42.19
2018-04-21T00:26:06.942Z,41.99
2018-04-21T00:28:38.483Z,42.22
2018-04-21T00:31:10.781Z,42.37
2018-04-21T00:33:43.548Z,42.42
2018-04-21T00:36:15.015Z,42.35
2018-04-21T00:38:46.613Z,42.84
2018-04-21T00:41:19.537Z,43.02
2018-04-21T00:43:50.796Z,43.38
2018-04-21T00:46:22.232Z,43.47
2018-04-21T00:48:53.504Z,43.36
2018-04-21T00:51:26.183Z,43.46
2018-04-21T00:54:07.145Z,43.26
2018-04-21T00:56:38.303Z,42.96
2018-04-21T00:59:09.876Z,43.01
2018-04-21T01:01:43.624Z,43.32
2018-04-21T01:04:15.019Z,43.37
2018-04-21T01:06:47.670Z,43.13
2018-04-21T01:09:19.534Z,43.32
2018-04-21T01:11:50.930Z,43.55
2018-04-21T01:14:24.315Z,43.60
2018-04-21T01:16:58.829Z,43.65
2018-04-21T01:19:30.542Z,43.97
2018-04-21T01:22:02.258Z,43.77
2018-04-21T01:24:36.648Z,43.57
2018-04-21T01:27:08.255Z,43.59
2018-04-21T01:29:40.287Z,43.50
2018-04-21T01:34:50.839Z,43.79
2018-04-21T01:37:22.615Z,44.05
2018-04-21T01:39:53.831Z,44.06
2018-04-21T01:42:26.393Z,44.37
2018-04-21T01:44:58.896Z,44.54
2018-04-21T01:47:31.193Z,44.41
2018-04-21T01:50:03.286Z,44.42
2018-04-21T01:52:36.315Z,44.67
2018-04-21T01:55:08.649Z,44.96
2018-04-21T01:57:42.053Z,45.12
2018-04-21T02:00:16.627Z,45.48
2018-04-21T02:02:54.566Z,45.42
2018-04-21T02:05:27.173Z,45.38
2018-04-21T02:07:59.002Z,45.70
2018-04-21T02:13:30.766Z,45.76
2018-04-21T02:16:12.950Z,45.85
2018-04-21T02:18:44.551Z,45.96
2018-04-21T02:21:15.958Z,46.33
2018-04-21T02:23:47.394Z,46.83
2018-04-21T02:26:18.709Z,46.93
2018-04-21T02:28:51.279Z,47.32
2018-04-21T02:31:22.956Z,47.48
2018-04-21T02:33:54.633Z,47.92
2018-04-21T02:36:26.024Z,47.71
2018-04-21T02:38:57.202Z,48.12
2018-04-21T02:41:28.669Z,48.17
2018-04-21T02:44:00.967Z,48.20
2018-04-21T02:46:33.019Z,48.25
2018-04-21T02:49:06.350Z,48.36
2018-04-21T02:51:38.491Z,48.27
2018-04-21T02:54:09.837Z,48.69
2018-04-21T02:56:42.079Z,49.49
2018-04-21T02:59:13.784Z,50.39
2018-04-21T03:01:45.662Z,50.94
2018-04-21T03:04:17.092Z,51.69
2018-04-21T03:06:48.707Z,52.06
2018-04-21T03:09:20.042Z,52.26
2018-04-21T03:11:54.900Z,52.98
2018-04-21T03:14:26.793Z,53.67
2018-04-21T03:16:58.569Z,54.02
2018-04-21T03:19:29.900Z,54.67
2018-04-21T03:22:01.893Z,54.90
2018-04-21T03:24:33.321Z,54.95
2018-04-21T03:27:06.293Z,55.16
2018-04-21T03:29:37.708Z,55.12
2018-04-21T03:32:09.519Z,54.93
2018-04-21T03:34:40.774Z,54.86
2018-04-21T03:37:16.853Z,55.39
2018-04-21T03:39:49.085Z,55.53
2018-04-21T03:42:20.894Z,55.60
2018-04-21T03:44:52.362Z,55.40
2018-04-21T03:47:24.264Z,55.46
2018-04-21T03:49:56.916Z,55.47
2018-04-21T03:52:29.138Z,55.25
2018-04-21T03:55:00.976Z,54.72
2018-04-21T03:57:34.080Z,54.72
2018-04-21T04:00:08.963Z,54.68
2018-04-21T04:02:40.218Z,54.49
2018-04-21T04:05:11.776Z,54.51
2018-04-21T04:07:43.092Z,54.63
2018-04-21T04:10:14.858Z,54.91
2018-04-21T04:12:46.939Z,55.33
2018-04-21T04:15:29.640Z,55.14
2018-04-21T04:19:08.311Z,55.58
2018-04-21T04:22:51.728Z,55.72
2018-04-21T04:25:23.092Z,56.43
2018-04-21T04:27:54.895Z,56.24
2018-04-21T04:30:26.746Z,56.04
2018-04-21T04:32:58.126Z,56.09
2018-04-21T04:35:35.895Z,55.56
2018-04-21T04:38:07.175Z,55.77
2018-04-21T04:40:39.020Z,55.64
2018-04-21T04:43:17.154Z,55.33
2018-04-21T04:45:49.341Z,54.89
2018-04-21T04:48:21.390Z,55.20
2018-04-21T04:50:55.224Z,55.37
2018-04-21T04:53:27.449Z,55.62
2018-04-21T04:55:59.709Z,55.56
2018-04-21T04:58:31.563Z,55.69
2018-04-21T05:01:04.261Z,55.59
2018-04-21T05:03:36.293Z,55.18
2018-04-21T05:06:07.684Z,55.00
2018-04-21T05:08:40.894Z,54.53
2018-04-21T05:11:12.488Z,54.72
2018-04-21T05:13:44.185Z,54.96
2018-04-21T05:16:15.986Z,54.54
2018-04-21T05:18:47.332Z,54.31
2018-04-21T05:21:23.417Z,53.78
2018-04-21T05:23:55.710Z,53.55
2018-04-21T05:26:27.303Z,53.41
2018-04-21T05:28:59.916Z,53.37
2018-04-21T05:31:31.747Z,52.85
2018-04-21T05:34:06.067Z,52.27
2018-04-21T05:36:38.185Z,52.48
2018-04-21T05:39:09.632Z,53.16
2018-04-21T05:41:50.509Z,53.39
2018-04-21T05:44:22.271Z,52.65
2018-04-21T05:46:55.352Z,53.16
2018-04-21T05:49:28.763Z,52.92
2018-04-21T05:52:00.362Z,52.56
2018-04-21T05:54:33.041Z,52.44
2018-04-21T05:57:05.311Z,52.42
2018-04-21T05:59:37.081Z,52.27
2018-04-21T06:02:13.772Z,51.97
2018-04-21T06:04:46.910Z,51.89
2018-04-21T06:07:18.298Z,51.93
2018-04-21T06:09:50.901Z,51.60
2018-04-21T06:12:22.088Z,50.85
2018-04-21T06:14:53.471Z,50.68
2018-04-21T06:17:25.761Z,50.96
2018-04-21T06:20:04.454Z,51.31
2018-04-21T06:22:38.930Z,51.16
2018-04-21T06:25:23.048Z,51.47
2018-04-21T06:27:55.475Z,51.08
2018-04-21T06:30:27.456Z,50.44
2018-04-21T06:32:59.879Z,49.62
2018-04-21T06:35:38.905Z,49.21
2018-04-21T06:38:10.371Z,48.82
2018-04-21T06:40:43.225Z,48.00
2018-04-21T06:43:16.601Z,47.69
2018-04-21T06:45:49.248Z,47.19
2018-04-21T06:48:20.654Z,47.04
2018-04-21T06:51:02.983Z,46.72
2018-04-21T06:53:35.609Z,46.51
2018-04-21T06:56:10.395Z,46.33
2018-04-21T06:58:54.515Z,45.89
2018-04-21T07:01:37.787Z,45.23
2018-04-21T07:04:25.998Z,45.32
2018-04-21T07:07:00.564Z,45.15
2018-04-21T07:09:32.070Z,45.28
2018-04-21T07:12:04.603Z,44.67
2018-04-21T07:14:39.058Z,44.25
2018-04-21T07:17:12.364Z,43.94
2018-04-21T07:19:46.972Z,43.11
2018-04-21T07:22:20.763Z,42.00
2018-04-21T07:24:53.461Z,41.11
2018-04-21T07:27:43.567Z,40.86
2018-04-21T07:30:26.852Z,41.06
2018-04-21T07:35:35.436Z,40.32
2018-04-21T07:38:05.874Z,39.93
2018-04-21T07:40:36.491Z,39.54
2018-04-21T07:43:08.819Z,38.70
2018-04-21T07:45:39.737Z,38.76
2018-04-21T07:48:10.310Z,38.53
2018-04-21T07:56:18.227Z,38.26
2018-04-21T07:58:49.584Z,36.63
2018-04-21T08:01:20.369Z,36.44
2018-04-21T08:03:52.239Z,35.92
2018-04-21T08:06:22.971Z,35.85
2018-04-21T08:08:53.937Z,35.76
2018-04-21T08:11:24.296Z,35.84
2018-04-21T08:13:55.884Z,35.82
2018-04-21T08:16:28.137Z,35.17
2018-04-21T08:18:58.699Z,34.46
2018-04-21T08:21:29.447Z,34.00
2018-04-21T08:23:59.972Z,33.82
2018-04-21T08:26:31.376Z,34.14
2018-04-21T08:29:01.863Z,34.25
2018-04-21T08:31:33.110Z,34.73
2018-04-21T08:34:03.448Z,34.43
2018-04-21T08:36:34.186Z,34.07
2018-04-21T08:39:06.754Z,33.65
2018-04-21T08:45:13.589Z,32.70
2018-04-21T08:47:44.130Z,31.26
2018-04-21T08:50:14.547Z,31.66
2018-04-21T08:53:10.830Z,31.93
2018-04-21T08:55:41.904Z,31.74
2018-04-21T08:58:13.124Z,31.42
2018-04-21T09:00:43.881Z,31.56
2018-04-21T09:03:14.966Z,30.75
2018-04-21T09:05:45.875Z,30.09
2018-04-21T09:08:16.211Z,30.93
2018-04-21T09:10:46.533Z,31.10
2018-04-21T09:13:19.680Z,30.84
2018-04-21T09:15:51.511Z,31.27
2018-04-21T09:18:23.078Z,31.15
2018-04-21T09:20:55.862Z,30.72
2018-04-21T09:23:26.584Z,30.27
2018-04-21T09:25:57.888Z,30.30
2018-04-21T09:28:28.503Z,30.68
2018-04-21T09:31:10.768Z,30.47
2018-04-21T09:33:52.913Z,29.90
2018-04-21T09:36:23.335Z,29.90
2018-04-21T09:38:54.888Z,28.95
2018-04-21T09:41:27.258Z,30.02
2018-04-21T09:43:57.974Z,29.68
2018-04-21T09:46:32.153Z,31.30
2018-04-21T09:49:02.637Z,31.61
2018-04-21T09:51:33.620Z,30.52
2018-04-21T09:54:04.393Z,29.73
2018-04-21T09:56:34.969Z,30.57
2018-04-21T09:59:05.522Z,30.66
2018-04-21T10:01:37.410Z,29.26
2018-04-21T10:04:13.361Z,28.81
2018-04-21T10:06:44.267Z,29.34
2018-04-21T10:09:14.557Z,28.97
2018-04-21T10:11:54.619Z,26.16
2018-04-21T10:14:34.939Z,27.48
2018-04-21T10:17:07.115Z,26.17
2018-04-21T10:19:40.342Z,27.12
2018-04-21T10:22:14.071Z,27.09
2018-04-21T10:24:45.099Z,26.37
2018-04-21T10:27:18.955Z,25.42
2018-04-21T10:29:53.190Z,26.26
2018-04-21T10:32:25.993Z,25.37
2018-04-21T10:35:01.043Z,24.19
2018-04-21T10:37:32.456Z,23.82
2018-04-21T10:40:03.307Z,22.84
2018-04-21T10:42:37.977Z,22.91
2018-04-21T10:45:19.879Z,23.24
2018-04-21T10:47:50.961Z,22.15
2018-04-21T10:50:24.337Z,21.42
2018-04-21T10:52:59.772Z,21.45
2018-04-21T10:55:36.362Z,19.91
2018-04-21T10:58:07.272Z,19.93
2018-04-21T11:00:40.017Z,19.63
2018-04-21T11:03:32.326Z,19.54
2018-04-21T11:06:05.109Z,19.94
2018-04-21T11:08:37.635Z,19.80
2018-04-21T11:11:16.113Z,19.62
2018-04-21T11:13:47.604Z,20.38
2018-04-21T11:19:28.882Z,19.25
2018-04-21T11:22:05.158Z,19.01
2018-04-21T11:24:42.590Z,19.54
2018-04-21T11:27:13.168Z,19.13
2018-04-21T11:29:44.637Z,18.89
2018-04-21T11:32:16.638Z,20.05
2018-04-21T11:34:57.454Z,20.69
2018-04-21T11:37:28.930Z,19.88
2018-04-21T11:40:14.955Z,19.90
2018-04-21T11:42:52.631Z,20.46
2018-04-21T11:45:26.345Z,20.93
2018-04-21T11:47:57.543Z,20.80
2018-04-21T11:50:32.626Z,21.13
2018-04-21T11:53:05.017Z,20.81
2018-04-21T11:55:36.244Z,20.79
2018-04-21T11:58:10.023Z,20.80
2018-04-21T12:00:44.874Z,20.69
2018-04-21T12:03:19.222Z,21.64
2018-04-21T12:05:51.768Z,21.62
2018-04-21T12:08:23.923Z,20.71
2018-04-21T12:10:55.518Z,20.14
2018-04-21T12:13:26.736Z,19.82
2018-04-21T12:15:57.879Z,20.20
2018-04-21T12:18:33.439Z,20.41
2018-04-21T12:21:06.349Z,19.92
2018-04-21T12:23:37.046Z,19.73
2018-04-21T12:26:09.123Z,20.39
2018-04-21T12:28:40.158Z,19.56
2018-04-21T12:31:11.268Z,20.10
2018-04-21T12:33:42.051Z,19.50
2018-04-21T12:36:12.835Z,18.41
2018-04-21T12:38:46.362Z,18.99
2018-04-21T12:41:18.225Z,19.07
2018-04-21T12:44:02.245Z,19.61
2018-04-21T12:46:45.575Z,19.66
2018-04-21T12:49:16.128Z,19.90
2018-04-21T12:51:51.638Z,19.96
2018-04-21T12:54:27.292Z,19.75
2018-04-21T12:56:59.652Z,19.12
2018-04-21T12:59:31.580Z,20.11
2018-04-21T13:02:05.968Z,19.26
2018-04-21T13:04:36.859Z,19.11
2018-04-21T13:07:07.408Z,18.82
2018-04-21T13:09:39.880Z,19.57
2018-04-21T13:12:10.808Z,19.44
2018-04-21T13:14:41.269Z,19.33
2018-04-21T13:17:11.684Z,19.35
2018-04-21T13:19:44.547Z,19.23
2018-04-21T13:22:16.056Z,19.54
2018-04-21T13:24:50.600Z,19.23
2018-04-21T13:27:22.317Z,19.40
2018-04-21T13:29:58.112Z,19.22
2018-04-21T13:32:29.679Z,19.18
2018-04-21T13:35:16.656Z,19.53
2018-04-21T13:37:48.659Z,19.43
2018-04-21T13:40:19.335Z,19.88
2018-04-21T13:42:55.805Z,19.79
2018-04-21T13:45:27.049Z,19.86
2018-04-21T13:47:59.303Z,20.39
2018-04-21T13:50:31.637Z,20.81
2018-04-21T13:53:02.706Z,20.78
2018-04-21T13:55:33.263Z,21.46
2018-04-21T13:58:03.818Z,21.57
2018-04-21T14:00:35.454Z,20.85
2018-04-21T14:03:08.810Z,20.60
2018-04-21T14:05:40.021Z,21.49
2018-04-21T14:08:11.068Z,21.75
2018-04-21T14:10:42.959Z,22.09
2018-04-21T14:13:14.330Z,21.97
2018-04-21T14:15:45.155Z,22.05
2018-04-21T14:18:15.727Z,22.48
2018-04-21T14:20:47.341Z,22.25
2018-04-21T14:23:20.830Z,22.93
2018-04-21T14:25:56.668Z,23.07
2018-04-21T14:28:30.019Z,23.26
2018-04-21T14:31:15.783Z,22.53
2018-04-21T14:33:57.531Z,23.41
2018-04-21T14:36:28.886Z,23.80
2018-04-21T14:39:20.688Z,23.60
2018-04-21T14:41:53.011Z,23.47
2018-04-21T14:44:27.822Z,23.74
2018-04-21T14:47:00.528Z,24.02
2018-04-21T14:49:32.958Z,24.17
2018-04-21T14:52:03.395Z,24.11
2018-04-21T14:54:34.973Z,24.32
2018-04-21T14:57:06.454Z,24.52
2018-04-21T14:59:38.078Z,24.95
2018-04-21T15:02:08.764Z,25.76
2018-04-21T15:04:40.990Z,26.06
2018-04-21T15:07:13.606Z,25.88
2018-04-21T15:09:43.884Z,26.34
2018-04-21T15:12:14.178Z,27.00
2018-04-21T15:14:48.290Z,27.28
2018-04-21T15:17:24.639Z,27.11
2018-04-21T15:19:58.179Z,27.06
2018-04-21T15:22:29.095Z,27.74
2018-04-21T15:24:59.861Z,28.22
2018-04-21T15:27:31.258Z,28.96
2018-04-21T15:30:07.077Z,29.18
2018-04-21T15:32:37.506Z,29.22
2018-04-21T15:35:08.693Z,29.42
2018-04-21T15:37:39.236Z,29.98
2018-04-21T15:40:21.950Z,29.81
2018-04-21T15:42:53.059Z,29.74
2018-04-21T15:45:23.560Z,30.01
2018-04-21T15:48:01.617Z,30.10
2018-04-21T15:50:38.803Z,30.67
2018-04-21T15:53:11.234Z,30.39
2018-04-21T15:55:41.735Z,30.36
2018-04-21T15:58:13.073Z,30.73
2018-04-21T16:00:45.375Z,30.41
2018-04-21T16:03:23.182Z,30.12
2018-04-21T16:05:53.735Z,29.91
2018-04-21T16:08:24.702Z,30.21
2018-04-21T16:10:56.078Z,30.48
2018-04-21T16:13:27.030Z,30.56
2018-04-21T16:15:59.544Z,30.44
2018-04-21T16:18:34.011Z,30.41
2018-04-21T16:23:43.203Z,31.00
2018-04-21T16:26:13.385Z,31.17
2018-04-21T16:28:43.955Z,30.98
2018-04-21T16:31:17.415Z,30.71
2018-04-21T16:33:50.975Z,30.66
2018-04-21T16:36:22.820Z,30.41
2018-04-21T16:38:55.896Z,30.28
2018-04-21T16:41:28.339Z,30.66
2018-04-21T16:43:59.271Z,30.54
2018-04-21T16:46:30.422Z,30.84
2018-04-21T16:49:17.491Z,31.03
2018-04-21T16:51:48.211Z,31.27
2018-04-21T16:54:20.737Z,31.18
2018-04-21T16:56:56.011Z,31.73
2018-04-21T16:59:32.873Z,31.68
2018-04-21T17:02:03.709Z,31.75
2018-04-21T17:04:34.443Z,31.80
2018-04-21T17:07:07.978Z,31.80
2018-04-21T17:09:38.930Z,32.07
2018-04-21T17:12:10.185Z,31.94
2018-04-21T17:14:41.019Z,31.93
2018-04-21T17:17:12.244Z,32.30
2018-04-21T17:19:44.576Z,32.41
2018-04-21T17:22:18.350Z,32.31
2018-04-21T17:24:50.049Z,32.05
2018-04-21T17:27:21.565Z,32.47
2018-04-21T17:29:52.097Z,32.55
2018-04-21T17:32:25.212Z,32.89
2018-04-21T17:34:57.614Z,32.71
2018-04-21T17:37:28.545Z,32.82
2018-04-21T17:40:00.346Z,32.98
2018-04-21T17:42:31.830Z,32.95
2018-04-21T17:45:14.778Z,33.17
2018-04-21T17:47:46.366Z,33.15
2018-04-21T17:50:18.527Z,33.36
2018-04-21T17:52:49.467Z,33.42
2018-04-21T17:55:24.723Z,33.57
2018-04-21T17:58:02.058Z,33.59
2018-04-21T18:00:32.719Z,33.76
2018-04-21T18:03:06.485Z,33.88
2018-04-21T18:05:37.547Z,33.99
2018-04-21T18:08:08.465Z,34.16
2018-04-21T18:10:39.074Z,34.47
2018-04-21T18:13:09.368Z,34.64
2018-04-21T18:15:39.959Z,34.72
2018-04-21T18:18:10.773Z,34.92
2018-04-21T18:20:52.577Z,35.08
2018-04-21T18:23:22.862Z,35.23
2018-04-21T18:25:55.025Z,35.25
2018-04-21T18:28:25.857Z,35.58
2018-04-21T18:31:03.113Z,35.55
2018-04-21T18:33:41.319Z,35.61
2018-04-21T18:36:14.788Z,35.87
2018-04-21T18:38:45.581Z,35.88
2018-04-21T18:41:16.711Z,35.98
2018-04-21T18:43:50.246Z,36.17
2018-04-21T18:46:20.918Z,36.28
2018-04-21T18:48:54.635Z,36.56
2018-04-21T18:51:26.550Z,36.48
2018-04-21T18:54:02.075Z,36.73
2018-04-21T18:56:33.321Z,37.06
2018-04-21T18:59:04.348Z,37.07
2018-04-21T19:01:35.445Z,37.16
2018-04-21T19:04:07.589Z,37.53
2018-04-21T19:06:37.910Z,37.56
2018-04-21T19:09:08.561Z,37.48
2018-04-21T19:11:39.405Z,37.53
2018-04-21T19:14:10.244Z,37.63
2018-04-21T19:16:41.136Z,37.84
2018-04-21T19:19:19.183Z,38.08
2018-04-21T19:21:50.883Z,38.08
2018-04-21T19:24:22.077Z,37.84
2018-04-21T19:26:53.369Z,37.81
2018-04-21T19:29:33.635Z,38.23
2018-04-21T19:32:04.698Z,38.47
2018-04-21T19:34:36.822Z,38.84
2018-04-21T19:37:08.987Z,38.90
2018-04-21T19:39:47.109Z,39.04
2018-04-21T19:42:19.205Z,39.07
2018-04-21T19:44:49.383Z,39.35
2018-04-21T19:47:20.240Z,39.31
2018-04-21T19:49:51.251Z,39.33
2018-04-21T19:55:22.215Z,39.74
2018-04-21T19:57:52.803Z,39.88
2018-04-21T20:00:23.187Z,39.95
2018-04-21T20:02:53.809Z,40.01
2018-04-21T20:05:24.545Z,39.80
2018-04-21T20:07:56.627Z,39.83
2018-04-21T20:10:27.456Z,39.95
2018-04-21T20:12:57.907Z,39.90
2018-04-21T20:15:29.371Z,40.00
2018-04-21T20:17:59.951Z,40.01
2018-04-21T20:20:31.903Z,40.01
2018-04-21T20:23:02.328Z,39.69
2018-04-21T20:25:34.762Z,39.73
2018-04-21T20:28:05.215Z,39.91
2018-04-21T20:30:35.718Z,39.91
2018-04-21T20:33:29.405Z,39.89
2018-04-21T20:36:19.300Z,39.86
2018-04-21T20:38:50.290Z,40.08
2018-04-21T20:41:21.577Z,40.40
2018-04-21T20:43:52.776Z,40.54
2018-04-21T20:46:24.304Z,40.70
2018-04-21T20:48:57.507Z,40.99
2018-04-21T20:51:30.111Z,41.16
2018-04-21T20:54:01.787Z,41.45
2018-04-21T20:56:36.278Z,41.76
2018-04-21T20:59:14.428Z,41.69
2018-04-21T21:01:45.794Z,41.73
2018-04-21T21:04:20.407Z,41.68
2018-04-21T21:06:52.472Z,41.93
2018-04-21T21:09:23.603Z,41.71
2018-04-21T21:11:55.231Z,41.97
2018-04-21T21:14:28.163Z,42.16
2018-04-21T21:16:59.037Z,42.05
2018-04-21T21:19:30.941Z,41.88
2018-04-21T21:22:01.388Z,41.78
2018-04-21T21:24:41.166Z,41.98
2018-04-21T21:27:12.122Z,41.90
2018-04-21T21:29:42.833Z,42.10
2018-04-21T21:32:13.715Z,41.72
2018-04-21T21:34:44.441Z,41.86
2018-04-21T21:37:16.408Z,42.09
2018-04-21T21:39:46.797Z,42.42
2018-04-21T21:42:17.490Z,42.80
2018-04-21T21:44:47.794Z,42.50
2018-04-21T21:47:19.457Z,42.47
2018-04-21T21:49:50.236Z,42.58
2018-04-21T21:52:20.744Z,42.55
2018-04-21T21:54:52.167Z,42.59
2018-04-21T21:57:24.775Z,42.63
2018-04-21T21:59:57.015Z,42.93
2018-04-21T22:02:27.326Z,43.13
2018-04-21T22:04:58.202Z,42.82
2018-04-21T22:07:32.564Z,42.72
2018-04-21T22:10:04.338Z,42.62
2018-04-21T22:12:35.745Z,42.55
2018-04-21T22:15:07.259Z,42.37
2018-04-21T22:17:38.140Z,42.32
2018-04-21T22:20:08.534Z,42.33
2018-04-21T22:22:38.927Z,42.19
2018-04-21T22:25:10.851Z,42.84
2018-04-21T22:27:42.220Z,43.31
2018-04-21T22:30:17.834Z,43.69
2018-04-21T22:32:48.228Z,43.54
2018-04-21T22:35:18.745Z,43.72
2018-04-21T22:37:48.969Z,43.81
2018-04-21T22:40:20.078Z,43.39
2018-04-21T22:43:00.445Z,43.28
2018-04-21T22:50:19.965Z,42.87
2018-04-21T22:52:51.579Z,43.46
2018-04-21T22:55:25.154Z,43.78
2018-04-21T22:57:57.621Z,44.17
2018-04-21T23:00:29.761Z,44.08
2018-04-21T23:03:00.957Z,44.52
2018-04-21T23:05:32.053Z,44.42
2018-04-21T23:08:02.647Z,44.19
2018-04-21T23:10:33.878Z,44.51
2018-04-21T23:13:04.474Z,44.80
2018-04-21T23:15:35.612Z,45.00
2018-04-21T23:18:05.993Z,45.33
2018-04-21T23:20:36.554Z,45.70
2018-04-21T23:23:06.816Z,45.58
2018-04-21T23:25:37.630Z,45.10
2018-04-21T23:28:08.504Z,45.23
2018-04-21T23:30:38.995Z,45.21
2018-04-21T23:33:09.560Z,45.08
2018-04-21T23:35:40.453Z,45.38
2018-04-21T23:38:13.318Z,45.49
2018-04-21T23:40:44.009Z,45.53
2018-04-21T23:43:23.319Z,45.23
2018-04-21T23:45:57.089Z,45.06
2018-04-21T23:48:28.458Z,44.90
2018-04-21T23:50:59.238Z,45.33
2018-04-21T23:53:32.908Z,45.86
2018-04-21T23:56:14.738Z,46.10
2018-04-21T23:58:45.226Z,46.32
